Hallettsville, Texas
Current Conditions -  °F | °C
As of 12:55 PM on Thursday 23 Oct 2014 (Local Time) from K66R Reporting Station
Clear Clear  
Wind Chill: 23°   Ceiling: Unl
Heat Index: 23°   Visibility: 10mi
Dew Point: 13°   Wind: 0mph
Humidity: 53%   Direction: NA
Pressure: 30.12"   Gusts: NA
Location:  29.44°N, 96.94°W
Report Text: K66R 231755Z AUTO 00000KT 10SM CLR 23/13 A3012 RMK AO2 T02330131 10233 20165
Loading
Personal Weather Stations






























Interactive Weather Map
Tropical Storm Tracking
New forecast layout! Learn more

10-Day Weather Forecast

Advertisements
Track Severe Weather on mobile